Terminal Aerodrome Forecast
Issued by NWS

Home | Current Version | Previous Version | Graphics & Text | Print | Product List | Glossary On
Versions: 1 2 3 4 5 6 7 8 9 10 11 12 13 14
000
FTUS43 KMPX 281738
TAFRWF
TAF
KRWF 281738Z 2818/2918 31015G26KT P6SM SCT080
     FM290100 28010KT P6SM VCSH SCT070
     FM290600 29008KT P6SM FEW070
     FM291200 29013G19KT P6SM BKN050
     FM291400 30014G21KT P6SM OVC025=

USA.gov is the U.S. government's official web portal to all federal, state and local government web resources and services.